sensor_id;sensor_type;location;lat;lon;timestamp;temperature;humidity
75688;HTU21D;64300;45.034;38.910;2023-03-29T00:01:35;11.04;98.35
75688;HTU21D;64300;45.034;38.910;2023-03-29T00:04:02;11.02;98.21
75688;HTU21D;64300;45.034;38.910;2023-03-29T00:06:28;11.01;98.22
75688;HTU21D;64300;45.034;38.910;2023-03-29T00:08:55;10.99;98.23
75688;HTU21D;64300;45.034;38.910;2023-03-29T00:11:22;10.98;98.26
75688;HTU21D;64300;45.034;38.910;2023-03-29T00:13:48;10.98;98.22
75688;HTU21D;64300;45.034;38.910;2023-03-29T00:16:14;10.95;98.16
75688;HTU21D;64300;45.034;38.910;2023-03-29T00:18:40;10.94;98.11
75688;HTU21D;64300;45.034;38.910;2023-03-29T00:21:07;10.94;97.99
75688;HTU21D;64300;45.034;38.910;2023-03-29T00:23:32;10.89;97.93
75688;HTU21D;64300;45.034;38.910;2023-03-29T00:26:18;10.88;97.84
75688;HTU21D;64300;45.034;38.910;2023-03-29T00:28:44;10.84;97.71
75688;HTU21D;64300;45.034;38.910;2023-03-29T00:31:13;10.84;97.66
75688;HTU21D;64300;45.034;38.910;2023-03-29T00:33:39;10.82;97.63
75688;HTU21D;64300;45.034;38.910;2023-03-29T00:36:07;10.80;97.51
75688;HTU21D;64300;45.034;38.910;2023-03-29T00:38:34;10.80;97.47
75688;HTU21D;64300;45.034;38.910;2023-03-29T00:41:00;10.80;97.49
75688;HTU21D;64300;45.034;38.910;2023-03-29T00:43:26;10.74;97.87
75688;HTU21D;64300;45.034;38.910;2023-03-29T00:45:52;10.65;97.68
75688;HTU21D;64300;45.034;38.910;2023-03-29T00:48:27;10.52;97.70
75688;HTU21D;64300;45.034;38.910;2023-03-29T00:51:05;10.22;97.55
75688;HTU21D;64300;45.034;38.910;2023-03-29T00:56:04;9.80;98.34
75688;HTU21D;64300;45.034;38.910;2023-03-29T00:58:41;9.63;98.48
75688;HTU21D;64300;45.034;38.910;2023-03-29T01:01:10;9.40;99.05
75688;HTU21D;64300;45.034;38.910;2023-03-29T01:03:49;9.23;98.92
75688;HTU21D;64300;45.034;38.910;2023-03-29T01:06:20;9.12;98.83
75688;HTU21D;64300;45.034;38.910;2023-03-29T01:09:00;8.91;100.78
75688;HTU21D;64300;45.034;38.910;2023-03-29T01:11:38;8.87;100.11
75688;HTU21D;64300;45.034;38.910;2023-03-29T01:14:13;8.66;101.35
75688;HTU21D;64300;45.034;38.910;2023-03-29T01:16:43;8.71;100.30
75688;HTU21D;64300;45.034;38.910;2023-03-29T01:19:14;8.70;100.05
75688;HTU21D;64300;45.034;38.910;2023-03-29T01:21:48;8.65;100.30
75688;HTU21D;64300;45.034;38.910;2023-03-29T01:27:11;8.48;102.44
75688;HTU21D;64300;45.034;38.910;2023-03-29T01:29:46;8.47;100.82
75688;HTU21D;64300;45.034;38.910;2023-03-29T01:32:29;8.37;102.51
75688;HTU21D;64300;45.034;38.910;2023-03-29T01:35:10;8.36;102.65
75688;HTU21D;64300;45.034;38.910;2023-03-29T01:37:48;8.35;101.32
75688;HTU21D;64300;45.034;38.910;2023-03-29T01:40:22;8.23;102.25
75688;HTU21D;64300;45.034;38.910;2023-03-29T01:45:54;8.07;102.63
75688;HTU21D;64300;45.034;38.910;2023-03-29T01:48:45;8.15;101.00
75688;HTU21D;64300;45.034;38.910;2023-03-29T01:51:17;8.03;102.41
75688;HTU21D;64300;45.034;38.910;2023-03-29T01:53:51;8.01;102.06
75688;HTU21D;64300;45.034;38.910;2023-03-29T01:56:35;7.94;103.78
75688;HTU21D;64300;45.034;38.910;2023-03-29T01:59:06;7.91;102.31
75688;HTU21D;64300;45.034;38.910;2023-03-29T02:01:36;7.77;105.45
75688;HTU21D;64300;45.034;38.910;2023-03-29T02:04:06;7.72;104.53
75688;HTU21D;64300;45.034;38.910;2023-03-29T02:06:38;7.57;106.13
75688;HTU21D;64300;45.034;38.910;2023-03-29T02:09:04;7.52;105.61
75688;HTU21D;64300;45.034;38.910;2023-03-29T02:11:32;7.47;107.14
75688;HTU21D;64300;45.034;38.910;2023-03-29T02:14:00;7.46;107.08
75688;HTU21D;64300;45.034;38.910;2023-03-29T02:16:26;7.44;106.58
75688;HTU21D;64300;45.034;38.910;2023-03-29T02:18:54;7.48;105.76
75688;HTU21D;64300;45.034;38.910;2023-03-29T02:21:37;7.43;105.27
75688;HTU21D;64300;45.034;38.910;2023-03-29T02:24:06;7.39;105.63
75688;HTU21D;64300;45.034;38.910;2023-03-29T02:26:33;7.41;104.47
75688;HTU21D;64300;45.034;38.910;2023-03-29T02:29:00;7.40;104.44
75688;HTU21D;64300;45.034;38.910;2023-03-29T02:31:28;7.44;105.58
75688;HTU21D;64300;45.034;38.910;2023-03-29T02:34:15;7.41;106.26
75688;HTU21D;64300;45.034;38.910;2023-03-29T02:36:52;7.48;103.38
75688;HTU21D;64300;45.034;38.910;2023-03-29T02:39:19;7.44;103.29
75688;HTU21D;64300;45.034;38.910;2023-03-29T02:41:49;7.42;104.24
75688;HTU21D;64300;45.034;38.910;2023-03-29T02:44:20;7.30;105.13
75688;HTU21D;64300;45.034;38.910;2023-03-29T02:46:49;7.25;105.99
75688;HTU21D;64300;45.034;38.910;2023-03-29T02:49:18;7.29;104.48
75688;HTU21D;64300;45.034;38.910;2023-03-29T02:51:45;7.35;103.53
75688;HTU21D;64300;45.034;38.910;2023-03-29T02:54:21;7.40;103.37
75688;HTU21D;64300;45.034;38.910;2023-03-29T02:56:59;7.41;103.10
75688;HTU21D;64300;45.034;38.910;2023-03-29T02:59:26;7.32;104.00
75688;HTU21D;64300;45.034;38.910;2023-03-29T03:01:54;7.35;103.65
75688;HTU21D;64300;45.034;38.910;2023-03-29T03:04:21;7.39;102.96
75688;HTU21D;64300;45.034;38.910;2023-03-29T03:06:47;7.41;103.37
75688;HTU21D;64300;45.034;38.910;2023-03-29T03:09:14;7.38;103.23
75688;HTU21D;64300;45.034;38.910;2023-03-29T03:11:43;7.39;102.47
75688;HTU21D;64300;45.034;38.910;2023-03-29T03:14:09;7.41;102.57
75688;HTU21D;64300;45.034;38.910;2023-03-29T03:16:35;7.37;102.93
75688;HTU21D;64300;45.034;38.910;2023-03-29T03:19:02;7.31;102.65
75688;HTU21D;64300;45.034;38.910;2023-03-29T03:21:28;7.31;102.70
75688;HTU21D;64300;45.034;38.910;2023-03-29T03:23:54;7.31;104.11
75688;HTU21D;64300;45.034;38.910;2023-03-29T03:26:21;7.26;104.97
75688;HTU21D;64300;45.034;38.910;2023-03-29T03:28:48;7.26;104.74
75688;HTU21D;64300;45.034;38.910;2023-03-29T03:31:32;7.22;106.11
75688;HTU21D;64300;45.034;38.910;2023-03-29T03:34:20;7.20;103.99
75688;HTU21D;64300;45.034;38.910;2023-03-29T03:36:52;7.25;102.88
75688;HTU21D;64300;45.034;38.910;2023-03-29T03:39:23;7.28;102.51
75688;HTU21D;64300;45.034;38.910;2023-03-29T03:41:49;7.27;103.15
75688;HTU21D;64300;45.034;38.910;2023-03-29T03:44:17;7.23;105.96
75688;HTU21D;64300;45.034;38.910;2023-03-29T03:46:46;7.30;102.95
75688;HTU21D;64300;45.034;38.910;2023-03-29T03:49:11;7.25;105.27
75688;HTU21D;64300;45.034;38.910;2023-03-29T03:51:40;7.24;105.65
75688;HTU21D;64300;45.034;38.910;2023-03-29T03:54:10;7.20;103.65
75688;HTU21D;64300;45.034;38.910;2023-03-29T03:56:36;7.23;103.63
75688;HTU21D;64300;45.034;38.910;2023-03-29T03:59:16;7.22;103.58
75688;HTU21D;64300;45.034;38.910;2023-03-29T04:01:52;7.24;105.50
75688;HTU21D;64300;45.034;38.910;2023-03-29T04:04:20;7.20;107.03
75688;HTU21D;64300;45.034;38.910;2023-03-29T04:07:07;7.26;104.79
75688;HTU21D;64300;45.034;38.910;2023-03-29T04:09:34;7.24;104.98
75688;HTU21D;64300;45.034;38.910;2023-03-29T04:12:38;7.14;107.96
75688;HTU21D;64300;45.034;38.910;2023-03-29T04:15:06;7.22;104.59
75688;HTU21D;64300;45.034;38.910;2023-03-29T04:17:33;7.15;106.62
75688;HTU21D;64300;45.034;38.910;2023-03-29T04:20:18;7.17;108.18
75688;HTU21D;64300;45.034;38.910;2023-03-29T04:22:45;7.17;109.46
75688;HTU21D;64300;45.034;38.910;2023-03-29T04:25:11;7.13;108.06
75688;HTU21D;64300;45.034;38.910;2023-03-29T04:27:47;7.12;107.91
75688;HTU21D;64300;45.034;38.910;2023-03-29T04:30:41;7.14;107.47
75688;HTU21D;64300;45.034;38.910;2023-03-29T04:33:14;7.12;108.43
75688;HTU21D;64300;45.034;38.910;2023-03-29T04:35:44;7.13;106.27
75688;HTU21D;64300;45.034;38.910;2023-03-29T04:38:13;7.10;108.07
75688;HTU21D;64300;45.034;38.910;2023-03-29T04:40:43;7.04;106.36
75688;HTU21D;64300;45.034;38.910;2023-03-29T04:43:38;7.02;106.59
75688;HTU21D;64300;45.034;38.910;2023-03-29T04:46:28;6.93;111.23
75688;HTU21D;64300;45.034;38.910;2023-03-29T04:49:14;6.82;112.01
75688;HTU21D;64300;45.034;38.910;2023-03-29T04:51:45;6.75;113.23
75688;HTU21D;64300;45.034;38.910;2023-03-29T04:54:14;6.76;113.56
75688;HTU21D;64300;45.034;38.910;2023-03-29T04:56:58;6.84;109.34
75688;HTU21D;64300;45.034;38.910;2023-03-29T04:59:33;6.79;112.33
75688;HTU21D;64300;45.034;38.910;2023-03-29T05:02:07;6.61;114.67
75688;HTU21D;64300;45.034;38.910;2023-03-29T05:04:36;6.75;111.12
75688;HTU21D;64300;45.034;38.910;2023-03-29T05:07:08;6.66;113.69
75688;HTU21D;64300;45.034;38.910;2023-03-29T05:09:34;6.64;114.96
75688;HTU21D;64300;45.034;38.910;2023-03-29T05:12:01;6.61;113.61
75688;HTU21D;64300;45.034;38.910;2023-03-29T05:14:33;6.43;113.08
75688;HTU21D;64300;45.034;38.910;2023-03-29T05:16:59;6.20;113.85
75688;HTU21D;64300;45.034;38.910;2023-03-29T05:19:26;6.08;114.22
75688;HTU21D;64300;45.034;38.910;2023-03-29T05:21:52;6.04;113.15
75688;HTU21D;64300;45.034;38.910;2023-03-29T05:24:21;5.92;114.83
75688;HTU21D;64300;45.034;38.910;2023-03-29T05:26:54;5.83;116.22
75688;HTU21D;64300;45.034;38.910;2023-03-29T05:29:32;5.94;117.25
75688;HTU21D;64300;45.034;38.910;2023-03-29T05:32:14;5.94;117.93
75688;HTU21D;64300;45.034;38.910;2023-03-29T05:34:40;5.86;118.99
75688;HTU21D;64300;45.034;38.910;2023-03-29T05:37:06;5.93;118.99
75688;HTU21D;64300;45.034;38.910;2023-03-29T05:39:45;5.93;118.99
75688;HTU21D;64300;45.034;38.910;2023-03-29T05:42:11;5.94;116.94
75688;HTU21D;64300;45.034;38.910;2023-03-29T05:44:49;5.91;118.99
75688;HTU21D;64300;45.034;38.910;2023-03-29T05:47:18;5.89;118.99
75688;HTU21D;64300;45.034;38.910;2023-03-29T05:49:44;5.70;118.72
75688;HTU21D;64300;45.034;38.910;2023-03-29T05:52:13;5.69;118.07
75688;HTU21D;64300;45.034;38.910;2023-03-29T05:54:43;5.52;117.76
75688;HTU21D;64300;45.034;38.910;2023-03-29T05:57:10;5.52;118.99
75688;HTU21D;64300;45.034;38.910;2023-03-29T05:59:37;5.51;118.99
75688;HTU21D;64300;45.034;38.910;2023-03-29T06:02:03;5.59;118.99
75688;HTU21D;64300;45.034;38.910;2023-03-29T06:04:31;5.56;118.99
75688;HTU21D;64300;45.034;38.910;2023-03-29T06:07:16;5.67;118.99
75688;HTU21D;64300;45.034;38.910;2023-03-29T06:09:53;5.62;118.99
75688;HTU21D;64300;45.034;38.910;2023-03-29T06:12:21;5.47;118.99
75688;HTU21D;64300;45.034;38.910;2023-03-29T06:14:56;5.50;118.99
75688;HTU21D;64300;45.034;38.910;2023-03-29T06:17:36;5.43;118.99
75688;HTU21D;64300;45.034;38.910;2023-03-29T06:20:21;5.34;118.99
75688;HTU21D;64300;45.034;38.910;2023-03-29T06:22:52;5.42;118.99
75688;HTU21D;64300;45.034;38.910;2023-03-29T06:25:18;5.31;118.99
75688;HTU21D;64300;45.034;38.910;2023-03-29T06:27:47;5.24;118.99
75688;HTU21D;64300;45.034;38.910;2023-03-29T06:30:18;5.22;118.99
75688;HTU21D;64300;45.034;38.910;2023-03-29T06:32:51;5.20;118.99
75688;HTU21D;64300;45.034;38.910;2023-03-29T06:35:33;5.24;118.99
75688;HTU21D;64300;45.034;38.910;2023-03-29T06:38:04;5.08;118.99
75688;HTU21D;64300;45.034;38.910;2023-03-29T06:41:00;5.12;118.99
75688;HTU21D;64300;45.034;38.910;2023-03-29T06:43:29;5.13;118.99
75688;HTU21D;64300;45.034;38.910;2023-03-29T06:46:05;5.22;117.58
75688;HTU21D;64300;45.034;38.910;2023-03-29T06:48:52;5.12;118.99
75688;HTU21D;64300;45.034;38.910;2023-03-29T06:51:19;5.05;118.99
75688;HTU21D;64300;45.034;38.910;2023-03-29T06:53:46;5.10;118.99
75688;HTU21D;64300;45.034;38.910;2023-03-29T06:56:12;4.92;118.99
75688;HTU21D;64300;45.034;38.910;2023-03-29T06:58:40;4.83;118.99
75688;HTU21D;64300;45.034;38.910;2023-03-29T07:01:47;4.66;118.99
75688;HTU21D;64300;45.034;38.910;2023-03-29T07:04:25;4.71;118.99
75688;HTU21D;64300;45.034;38.910;2023-03-29T07:07:12;4.64;118.99
75688;HTU21D;64300;45.034;38.910;2023-03-29T07:09:45;4.63;118.99
75688;HTU21D;64300;45.034;38.910;2023-03-29T07:12:20;4.68;118.99
75688;HTU21D;64300;45.034;38.910;2023-03-29T07:14:46;4.65;118.99
75688;HTU21D;64300;45.034;38.910;2023-03-29T07:17:13;4.66;118.99
75688;HTU21D;64300;45.034;38.910;2023-03-29T07:19:41;4.54;118.99
75688;HTU21D;64300;45.034;38.910;2023-03-29T07:22:30;4.35;118.99
75688;HTU21D;64300;45.034;38.910;2023-03-29T07:24:59;4.31;118.99
75688;HTU21D;64300;45.034;38.910;2023-03-29T07:27:28;4.13;118.99
75688;HTU21D;64300;45.034;38.910;2023-03-29T07:29:54;4.19;118.99
75688;HTU21D;64300;45.034;38.910;2023-03-29T07:32:21;4.24;118.99
75688;HTU21D;64300;45.034;38.910;2023-03-29T07:35:08;4.21;118.99
75688;HTU21D;64300;45.034;38.910;2023-03-29T07:37:35;4.27;118.99
75688;HTU21D;64300;45.034;38.910;2023-03-29T07:40:07;4.32;118.99
75688;HTU21D;64300;45.034;38.910;2023-03-29T07:43:00;4.29;118.99
75688;HTU21D;64300;45.034;38.910;2023-03-29T07:45:30;4.31;118.99
75688;HTU21D;64300;45.034;38.910;2023-03-29T07:48:00;4.31;118.99
75688;HTU21D;64300;45.034;38.910;2023-03-29T07:50:38;4.35;118.99
75688;HTU21D;64300;45.034;38.910;2023-03-29T07:53:04;4.41;118.99
75688;HTU21D;64300;45.034;38.910;2023-03-29T07:55:31;4.47;118.99
75688;HTU21D;64300;45.034;38.910;2023-03-29T07:58:08;4.47;118.99
75688;HTU21D;64300;45.034;38.910;2023-03-29T08:00:35;4.54;118.99
75688;HTU21D;64300;45.034;38.910;2023-03-29T08:03:24;4.62;118.99
75688;HTU21D;64300;45.034;38.910;2023-03-29T08:05:50;4.62;118.99
75688;HTU21D;64300;45.034;38.910;2023-03-29T08:08:16;4.65;118.99
75688;HTU21D;64300;45.034;38.910;2023-03-29T08:10:52;4.63;118.99
75688;HTU21D;64300;45.034;38.910;2023-03-29T08:13:38;4.58;118.99
75688;HTU21D;64300;45.034;38.910;2023-03-29T08:16:26;4.43;118.99
75688;HTU21D;64300;45.034;38.910;2023-03-29T08:19:07;4.46;118.99
75688;HTU21D;64300;45.034;38.910;2023-03-29T08:21:51;4.52;118.99
75688;HTU21D;64300;45.034;38.910;2023-03-29T08:24:22;4.52;118.99
75688;HTU21D;64300;45.034;38.910;2023-03-29T08:26:53;4.61;118.99
75688;HTU21D;64300;45.034;38.910;2023-03-29T08:29:19;4.59;118.99
75688;HTU21D;64300;45.034;38.910;2023-03-29T08:31:45;4.67;118.99
75688;HTU21D;64300;45.034;38.910;2023-03-29T08:34:11;4.73;118.99
75688;HTU21D;64300;45.034;38.910;2023-03-29T08:37:01;4.59;118.99
75688;HTU21D;64300;45.034;38.910;2023-03-29T08:39:36;4.64;118.99
75688;HTU21D;64300;45.034;38.910;2023-03-29T08:45:13;4.68;118.99
75688;HTU21D;64300;45.034;38.910;2023-03-29T08:48:09;4.58;118.99
75688;HTU21D;64300;45.034;38.910;2023-03-29T08:50:43;4.67;118.99
75688;HTU21D;64300;45.034;38.910;2023-03-29T08:56:03;4.65;118.99
75688;HTU21D;64300;45.034;38.910;2023-03-29T08:58:55;4.63;118.99
75688;HTU21D;64300;45.034;38.910;2023-03-29T09:01:29;4.53;118.99
75688;HTU21D;64300;45.034;38.910;2023-03-29T09:06:38;4.64;118.99
75688;HTU21D;64300;45.034;38.910;2023-03-29T09:09:18;4.57;118.99
75688;HTU21D;64300;45.034;38.910;2023-03-29T09:14:28;4.50;118.99
75688;HTU21D;64300;45.034;38.910;2023-03-29T09:25:45;4.61;118.99
75688;HTU21D;64300;45.034;38.910;2023-03-29T09:28:19;4.63;118.99
75688;HTU21D;64300;45.034;38.910;2023-03-29T09:31:15;4.66;118.99
75688;HTU21D;64300;45.034;38.910;2023-03-29T09:33:54;4.62;118.99
75688;HTU21D;64300;45.034;38.910;2023-03-29T09:36:56;4.60;118.99
75688;HTU21D;64300;45.034;38.910;2023-03-29T09:39:25;4.62;118.99
75688;HTU21D;64300;45.034;38.910;2023-03-29T09:42:00;4.63;118.99
75688;HTU21D;64300;45.034;38.910;2023-03-29T09:44:32;4.58;118.99
75688;HTU21D;64300;45.034;38.910;2023-03-29T09:47:16;4.57;118.99
75688;HTU21D;64300;45.034;38.910;2023-03-29T09:49:46;4.50;118.99
75688;HTU21D;64300;45.034;38.910;2023-03-29T09:52:15;4.46;118.99
75688;HTU21D;64300;45.034;38.910;2023-03-29T09:54:49;4.44;118.99
75688;HTU21D;64300;45.034;38.910;2023-03-29T09:57:40;4.48;118.99
75688;HTU21D;64300;45.034;38.910;2023-03-29T10:00:07;4.49;118.99
75688;HTU21D;64300;45.034;38.910;2023-03-29T10:02:56;4.51;118.99
75688;HTU21D;64300;45.034;38.910;2023-03-29T10:05:35;4.46;118.99
75688;HTU21D;64300;45.034;38.910;2023-03-29T10:08:21;4.54;118.99
75688;HTU21D;64300;45.034;38.910;2023-03-29T10:10:47;4.48;118.99
75688;HTU21D;64300;45.034;38.910;2023-03-29T10:13:17;4.46;118.99
75688;HTU21D;64300;45.034;38.910;2023-03-29T10:16:05;4.42;118.99
75688;HTU21D;64300;45.034;38.910;2023-03-29T10:18:38;4.39;118.99
75688;HTU21D;64300;45.034;38.910;2023-03-29T10:21:04;4.31;118.99
75688;HTU21D;64300;45.034;38.910;2023-03-29T10:23:31;4.31;118.99
75688;HTU21D;64300;45.034;38.910;2023-03-29T10:25:57;4.28;118.99
75688;HTU21D;64300;45.034;38.910;2023-03-29T10:28:23;4.26;118.99
75688;HTU21D;64300;45.034;38.910;2023-03-29T10:30:55;4.23;118.99
75688;HTU21D;64300;45.034;38.910;2023-03-29T10:33:23;4.24;118.99
75688;HTU21D;64300;45.034;38.910;2023-03-29T10:35:51;4.19;118.99
75688;HTU21D;64300;45.034;38.910;2023-03-29T10:38:22;4.14;118.99
75688;HTU21D;64300;45.034;38.910;2023-03-29T10:40:50;4.08;118.99
75688;HTU21D;64300;45.034;38.910;2023-03-29T10:45:43;4.00;118.99
75688;HTU21D;64300;45.034;38.910;2023-03-29T10:48:13;4.10;118.99
75688;HTU21D;64300;45.034;38.910;2023-03-29T10:50:40;4.18;118.99
75688;HTU21D;64300;45.034;38.910;2023-03-29T10:53:26;4.23;118.99
75688;HTU21D;64300;45.034;38.910;2023-03-29T11:01:22;4.34;118.99
75688;HTU21D;64300;45.034;38.910;2023-03-29T11:04:03;4.50;118.99
75688;HTU21D;64300;45.034;38.910;2023-03-29T11:06:38;4.53;118.99
75688;HTU21D;64300;45.034;38.910;2023-03-29T11:09:23;4.48;118.99
75688;HTU21D;64300;45.034;38.910;2023-03-29T11:18:26;4.35;118.99
75688;HTU21D;64300;45.034;38.910;2023-03-29T11:23:34;4.61;118.99
75688;HTU21D;64300;45.034;38.910;2023-03-29T11:26:17;4.63;118.99
75688;HTU21D;64300;45.034;38.910;2023-03-29T11:28:54;4.66;118.99
75688;HTU21D;64300;45.034;38.910;2023-03-29T11:37:14;4.37;118.99
75688;HTU21D;64300;45.034;38.910;2023-03-29T11:42:28;4.22;118.99
75688;HTU21D;64300;45.034;38.910;2023-03-29T11:44:58;4.30;118.99
75688;HTU21D;64300;45.034;38.910;2023-03-29T11:47:38;4.35;118.99
75688;HTU21D;64300;45.034;38.910;2023-03-29T11:52:45;4.44;118.99
75688;HTU21D;64300;45.034;38.910;2023-03-29T11:55:17;4.46;118.99
75688;HTU21D;64300;45.034;38.910;2023-03-29T11:57:51;4.44;118.99
75688;HTU21D;64300;45.034;38.910;2023-03-29T12:05:55;4.50;118.99
75688;HTU21D;64300;45.034;38.910;2023-03-29T12:08:45;4.50;118.99
75688;HTU21D;64300;45.034;38.910;2023-03-29T12:11:44;4.60;118.99
75688;HTU21D;64300;45.034;38.910;2023-03-29T12:14:16;4.61;118.99
75688;HTU21D;64300;45.034;38.910;2023-03-29T12:17:03;4.67;118.99
75688;HTU21D;64300;45.034;38.910;2023-03-29T12:19:34;4.61;118.99
75688;HTU21D;64300;45.034;38.910;2023-03-29T12:22:01;4.60;118.99
75688;HTU21D;64300;45.034;38.910;2023-03-29T12:24:31;4.57;118.99
75688;HTU21D;64300;45.034;38.910;2023-03-29T12:38:29;4.42;118.99
75688;HTU21D;64300;45.034;38.910;2023-03-29T12:41:20;4.26;118.99
75688;HTU21D;64300;45.034;38.910;2023-03-29T12:44:06;4.24;118.99
75688;HTU21D;64300;45.034;38.910;2023-03-29T12:46:51;4.24;118.99
75688;HTU21D;64300;45.034;38.910;2023-03-29T12:49:31;4.31;118.99
75688;HTU21D;64300;45.034;38.910;2023-03-29T12:52:00;4.41;118.99
75688;HTU21D;64300;45.034;38.910;2023-03-29T12:54:30;4.45;118.99
75688;HTU21D;64300;45.034;38.910;2023-03-29T12:57:16;4.31;118.99
75688;HTU21D;64300;45.034;38.910;2023-03-29T12:59:45;4.32;118.99
75688;HTU21D;64300;45.034;38.910;2023-03-29T13:09:49;4.38;118.99
75688;HTU21D;64300;45.034;38.910;2023-03-29T13:12:23;4.35;118.99
75688;HTU21D;64300;45.034;38.910;2023-03-29T13:14:57;4.39;118.99
75688;HTU21D;64300;45.034;38.910;2023-03-29T13:17:30;4.49;118.99
75688;HTU21D;64300;45.034;38.910;2023-03-29T13:22:56;4.59;118.99
75688;HTU21D;64300;45.034;38.910;2023-03-29T13:28:20;4.48;118.99
75688;HTU21D;64300;45.034;38.910;2023-03-29T13:31:28;4.53;118.99
75688;HTU21D;64300;45.034;38.910;2023-03-29T13:39:18;4.54;118.99
75688;HTU21D;64300;45.034;38.910;2023-03-29T13:41:47;4.53;118.99
75688;HTU21D;64300;45.034;38.910;2023-03-29T13:46:48;4.51;118.99
75688;HTU21D;64300;45.034;38.910;2023-03-29T13:49:16;4.58;118.99
75688;HTU21D;64300;45.034;38.910;2023-03-29T13:52:12;4.52;118.99
75688;HTU21D;64300;45.034;38.910;2023-03-29T13:57:39;4.53;118.99
75688;HTU21D;64300;45.034;38.910;2023-03-29T14:02:43;4.57;118.99
75688;HTU21D;64300;45.034;38.910;2023-03-29T14:05:16;4.54;118.99
75688;HTU21D;64300;45.034;38.910;2023-03-29T14:07:50;4.58;118.99
75688;HTU21D;64300;45.034;38.910;2023-03-29T14:10:22;4.62;118.99
75688;HTU21D;64300;45.034;38.910;2023-03-29T14:12:49;4.72;118.99
75688;HTU21D;64300;45.034;38.910;2023-03-29T14:15:24;4.73;118.99
75688;HTU21D;64300;45.034;38.910;2023-03-29T14:17:56;4.73;118.99
75688;HTU21D;64300;45.034;38.910;2023-03-29T14:20:23;4.68;118.99
75688;HTU21D;64300;45.034;38.910;2023-03-29T14:22:50;4.67;118.99
75688;HTU21D;64300;45.034;38.910;2023-03-29T14:25:18;4.60;118.99
75688;HTU21D;64300;45.034;38.910;2023-03-29T14:27:47;4.58;118.99
75688;HTU21D;64300;45.034;38.910;2023-03-29T14:30:26;4.46;118.99
75688;HTU21D;64300;45.034;38.910;2023-03-29T14:32:54;4.49;118.99
75688;HTU21D;64300;45.034;38.910;2023-03-29T14:35:28;4.36;118.99
75688;HTU21D;64300;45.034;38.910;2023-03-29T14:37:58;4.37;118.99
75688;HTU21D;64300;45.034;38.910;2023-03-29T14:40:24;4.36;118.99
75688;HTU21D;64300;45.034;38.910;2023-03-29T14:42:52;4.35;118.99
75688;HTU21D;64300;45.034;38.910;2023-03-29T14:45:20;4.35;118.99
75688;HTU21D;64300;45.034;38.910;2023-03-29T14:47:48;4.38;118.99
75688;HTU21D;64300;45.034;38.910;2023-03-29T14:50:26;4.43;118.99
75688;HTU21D;64300;45.034;38.910;2023-03-29T14:52:53;4.35;118.99
75688;HTU21D;64300;45.034;38.910;2023-03-29T14:55:21;4.22;118.99
75688;HTU21D;64300;45.034;38.910;2023-03-29T15:16:27;3.90;118.99
75688;HTU21D;64300;45.034;38.910;2023-03-29T15:19:45;3.90;118.99
75688;HTU21D;64300;45.034;38.910;2023-03-29T15:22:23;3.89;118.99
75688;HTU21D;64300;45.034;38.910;2023-03-29T15:24:57;3.92;118.99
75688;HTU21D;64300;45.034;38.910;2023-03-29T15:27:40;3.89;118.99
75688;HTU21D;64300;45.034;38.910;2023-03-29T15:34:25;3.74;118.99
75688;HTU21D;64300;45.034;38.910;2023-03-29T15:36:55;3.74;118.99
75688;HTU21D;64300;45.034;38.910;2023-03-29T15:39:24;3.73;118.99
75688;HTU21D;64300;45.034;38.910;2023-03-29T15:42:11;3.69;118.99
75688;HTU21D;64300;45.034;38.910;2023-03-29T15:44:39;3.68;118.99
75688;HTU21D;64300;45.034;38.910;2023-03-29T15:47:11;3.64;118.99
75688;HTU21D;64300;45.034;38.910;2023-03-29T15:49:56;3.67;118.99
75688;HTU21D;64300;45.034;38.910;2023-03-29T15:52:22;3.68;118.99
75688;HTU21D;64300;45.034;38.910;2023-03-29T15:54:47;3.64;118.99
75688;HTU21D;64300;45.034;38.910;2023-03-29T15:57:42;3.64;118.99
75688;HTU21D;64300;45.034;38.910;2023-03-29T16:00:12;3.58;118.99
75688;HTU21D;64300;45.034;38.910;2023-03-29T16:02:39;3.60;118.99
75688;HTU21D;64300;45.034;38.910;2023-03-29T16:05:05;3.63;118.99
75688;HTU21D;64300;45.034;38.910;2023-03-29T16:07:31;3.64;118.99
75688;HTU21D;64300;45.034;38.910;2023-03-29T16:10:01;3.64;118.99
75688;HTU21D;64300;45.034;38.910;2023-03-29T16:12:29;3.67;118.99
75688;HTU21D;64300;45.034;38.910;2023-03-29T16:14:55;3.68;118.99
75688;HTU21D;64300;45.034;38.910;2023-03-29T16:17:21;3.70;118.99
75688;HTU21D;64300;45.034;38.910;2023-03-29T16:19:47;3.72;118.99
75688;HTU21D;64300;45.034;38.910;2023-03-29T16:22:13;3.71;118.99
75688;HTU21D;64300;45.034;38.910;2023-03-29T16:24:39;3.71;118.99
75688;HTU21D;64300;45.034;38.910;2023-03-29T16:27:05;3.74;118.99
75688;HTU21D;64300;45.034;38.910;2023-03-29T16:29:31;3.76;118.99
75688;HTU21D;64300;45.034;38.910;2023-03-29T16:31:57;3.76;118.99
75688;HTU21D;64300;45.034;38.910;2023-03-29T16:34:23;3.77;118.99
75688;HTU21D;64300;45.034;38.910;2023-03-29T16:36:49;3.78;118.99
75688;HTU21D;64300;45.034;38.910;2023-03-29T16:39:19;3.80;118.99
75688;HTU21D;64300;45.034;38.910;2023-03-29T16:41:45;3.79;118.99
75688;HTU21D;64300;45.034;38.910;2023-03-29T16:44:16;3.80;118.99
75688;HTU21D;64300;45.034;38.910;2023-03-29T16:46:43;3.80;118.99
75688;HTU21D;64300;45.034;38.910;2023-03-29T16:49:13;3.88;118.99
75688;HTU21D;64300;45.034;38.910;2023-03-29T16:51:46;3.88;118.99
75688;HTU21D;64300;45.034;38.910;2023-03-29T16:54:13;3.91;118.99
75688;HTU21D;64300;45.034;38.910;2023-03-29T16:56:40;3.89;118.99
75688;HTU21D;64300;45.034;38.910;2023-03-29T16:59:05;3.93;118.99
75688;HTU21D;64300;45.034;38.910;2023-03-29T17:01:34;3.92;118.99
75688;HTU21D;64300;45.034;38.910;2023-03-29T17:04:01;3.91;118.99
75688;HTU21D;64300;45.034;38.910;2023-03-29T17:06:27;3.90;118.99
75688;HTU21D;64300;45.034;38.910;2023-03-29T17:08:53;3.99;118.99
75688;HTU21D;64300;45.034;38.910;2023-03-29T17:11:19;4.03;118.99
75688;HTU21D;64300;45.034;38.910;2023-03-29T17:13:48;4.05;118.99
75688;HTU21D;64300;45.034;38.910;2023-03-29T17:16:15;4.07;118.99
75688;HTU21D;64300;45.034;38.910;2023-03-29T17:18:41;4.04;118.99
75688;HTU21D;64300;45.034;38.910;2023-03-29T17:21:10;4.05;118.99
75688;HTU21D;64300;45.034;38.910;2023-03-29T17:23:36;4.04;118.99
75688;HTU21D;64300;45.034;38.910;2023-03-29T17:26:02;4.03;118.99
75688;HTU21D;64300;45.034;38.910;2023-03-29T17:28:28;3.95;118.99
75688;HTU21D;64300;45.034;38.910;2023-03-29T17:30:54;3.94;118.99
75688;HTU21D;64300;45.034;38.910;2023-03-29T17:33:20;3.91;118.99
75688;HTU21D;64300;45.034;38.910;2023-03-29T17:35:46;3.84;118.99
75688;HTU21D;64300;45.034;38.910;2023-03-29T17:38:13;3.79;118.99
75688;HTU21D;64300;45.034;38.910;2023-03-29T17:40:39;3.77;118.99